sensor_id;sensor_type;location;lat;lon;timestamp;P1;durP1;ratioP1;P2;durP2;ratioP2
239;SDS011;104;53.590;10.004;2023-07-13T04:38:46;22.23;;;8.47;;
239;SDS011;104;53.590;10.004;2023-07-13T04:41:14;20.40;;;8.77;;
239;SDS011;104;53.590;10.004;2023-07-13T04:43:42;18.00;;;8.50;;
239;SDS011;104;53.590;10.004;2023-07-13T04:46:09;20.70;;;8.70;;
239;SDS011;104;53.590;10.004;2023-07-13T04:48:37;14.97;;;7.93;;
239;SDS011;104;53.590;10.004;2023-07-13T04:51:04;23.03;;;8.60;;
239;SDS011;104;53.590;10.004;2023-07-13T04:53:32;28.60;;;10.50;;
239;SDS011;104;53.590;10.004;2023-07-13T04:56:01;24.93;;;8.70;;
239;SDS011;104;53.590;10.004;2023-07-13T04:58:28;27.10;;;8.83;;
239;SDS011;104;53.590;10.004;2023-07-13T05:00:59;16.33;;;7.87;;
239;SDS011;104;53.590;10.004;2023-07-13T05:03:26;18.00;;;8.03;;
239;SDS011;104;53.590;10.004;2023-07-13T05:05:57;21.07;;;7.80;;
239;SDS011;104;53.590;10.004;2023-07-13T05:08:24;19.47;;;7.33;;
239;SDS011;104;53.590;10.004;2023-07-13T05:10:51;22.40;;;8.90;;
239;SDS011;104;53.590;10.004;2023-07-13T05:13:20;17.37;;;7.97;;
239;SDS011;104;53.590;10.004;2023-07-13T05:15:54;21.77;;;7.07;;
239;SDS011;104;53.590;10.004;2023-07-13T05:18:22;17.03;;;6.93;;
239;SDS011;104;53.590;10.004;2023-07-13T05:20:56;19.00;;;7.40;;
239;SDS011;104;53.590;10.004;2023-07-13T05:23:23;23.23;;;8.97;;
239;SDS011;104;53.590;10.004;2023-07-13T05:25:50;15.80;;;6.80;;
239;SDS011;104;53.590;10.004;2023-07-13T05:28:21;17.73;;;7.90;;
239;SDS011;104;53.590;10.004;2023-07-13T05:30:49;26.93;;;7.17;;
239;SDS011;104;53.590;10.004;2023-07-13T05:33:17;17.73;;;8.03;;
239;SDS011;104;53.590;10.004;2023-07-13T05:35:46;20.33;;;7.33;;
239;SDS011;104;53.590;10.004;2023-07-13T05:38:13;16.70;;;7.60;;
239;SDS011;104;53.590;10.004;2023-07-13T05:40:42;22.90;;;9.03;;
239;SDS011;104;53.590;10.004;2023-07-13T05:43:13;19.57;;;8.50;;
239;SDS011;104;53.590;10.004;2023-07-13T05:45:41;24.17;;;11.10;;
239;SDS011;104;53.590;10.004;2023-07-13T05:48:09;25.73;;;9.43;;
239;SDS011;104;53.590;10.004;2023-07-13T05:50:36;21.10;;;10.00;;
239;SDS011;104;53.590;10.004;2023-07-13T05:53:03;30.20;;;18.40;;
239;SDS011;104;53.590;10.004;2023-07-13T05:55:30;23.60;;;13.93;;
239;SDS011;104;53.590;10.004;2023-07-13T05:57:58;27.57;;;18.77;;
239;SDS011;104;53.590;10.004;2023-07-13T06:00:25;26.00;;;15.27;;
239;SDS011;104;53.590;10.004;2023-07-13T06:02:55;22.10;;;7.60;;
239;SDS011;104;53.590;10.004;2023-07-13T06:05:23;27.50;;;8.53;;
239;SDS011;104;53.590;10.004;2023-07-13T06:07:55;27.57;;;9.13;;
239;SDS011;104;53.590;10.004;2023-07-13T06:10:22;17.90;;;8.20;;
239;SDS011;104;53.590;10.004;2023-07-13T06:12:49;12.87;;;6.70;;
239;SDS011;104;53.590;10.004;2023-07-13T06:15:17;15.47;;;5.60;;
239;SDS011;104;53.590;10.004;2023-07-13T06:17:44;17.30;;;7.80;;
239;SDS011;104;53.590;10.004;2023-07-13T06:20:13;28.13;;;11.13;;
239;SDS011;104;53.590;10.004;2023-07-13T06:22:40;26.63;;;10.70;;
239;SDS011;104;53.590;10.004;2023-07-13T06:25:08;17.10;;;9.20;;
239;SDS011;104;53.590;10.004;2023-07-13T06:27:35;16.17;;;6.70;;
239;SDS011;104;53.590;10.004;2023-07-13T06:30:03;29.10;;;10.97;;
239;SDS011;104;53.590;10.004;2023-07-13T06:32:30;30.77;;;12.10;;
239;SDS011;104;53.590;10.004;2023-07-13T06:34:57;23.90;;;13.40;;
239;SDS011;104;53.590;10.004;2023-07-13T06:37:26;28.07;;;11.00;;
239;SDS011;104;53.590;10.004;2023-07-13T06:39:53;17.87;;;11.70;;
239;SDS011;104;53.590;10.004;2023-07-13T06:42:20;20.47;;;8.77;;
239;SDS011;104;53.590;10.004;2023-07-13T06:44:48;20.03;;;7.73;;
239;SDS011;104;53.590;10.004;2023-07-13T06:47:15;18.00;;;7.70;;
239;SDS011;104;53.590;10.004;2023-07-13T06:49:42;23.37;;;7.33;;
239;SDS011;104;53.590;10.004;2023-07-13T06:52:09;24.43;;;7.93;;
239;SDS011;104;53.590;10.004;2023-07-13T06:54:38;20.43;;;9.67;;
239;SDS011;104;53.590;10.004;2023-07-13T06:57:05;26.57;;;14.50;;
239;SDS011;104;53.590;10.004;2023-07-13T06:59:33;34.27;;;18.50;;
239;SDS011;104;53.590;10.004;2023-07-13T07:02:03;27.43;;;17.90;;
239;SDS011;104;53.590;10.004;2023-07-13T07:04:45;26.13;;;13.00;;
239;SDS011;104;53.590;10.004;2023-07-13T07:07:16;32.10;;;14.67;;
239;SDS011;104;53.590;10.004;2023-07-13T07:12:44;33.83;;;18.83;;
239;SDS011;104;53.590;10.004;2023-07-13T07:15:16;25.50;;;20.43;;
239;SDS011;104;53.590;10.004;2023-07-13T07:17:45;35.60;;;22.57;;
239;SDS011;104;53.590;10.004;2023-07-13T07:20:12;23.57;;;16.90;;
239;SDS011;104;53.590;10.004;2023-07-13T07:22:40;21.63;;;17.83;;
239;SDS011;104;53.590;10.004;2023-07-13T07:25:07;25.67;;;17.03;;
239;SDS011;104;53.590;10.004;2023-07-13T07:27:35;23.93;;;18.33;;
239;SDS011;104;53.590;10.004;2023-07-13T07:30:05;30.23;;;21.40;;
239;SDS011;104;53.590;10.004;2023-07-13T07:32:32;36.63;;;26.67;;
239;SDS011;104;53.590;10.004;2023-07-13T07:35:00;39.30;;;32.53;;
239;SDS011;104;53.590;10.004;2023-07-13T07:37:27;44.30;;;42.13;;
239;SDS011;104;53.590;10.004;2023-07-13T07:39:57;54.17;;;48.33;;
239;SDS011;104;53.590;10.004;2023-07-13T07:42:33;77.37;;;73.63;;
239;SDS011;104;53.590;10.004;2023-07-13T07:48:09;62.00;;;52.57;;
239;SDS011;104;53.590;10.004;2023-07-13T07:50:41;47.23;;;39.63;;
239;SDS011;104;53.590;10.004;2023-07-13T07:53:15;33.50;;;21.83;;
239;SDS011;104;53.590;10.004;2023-07-13T07:55:46;42.43;;;30.40;;
239;SDS011;104;53.590;10.004;2023-07-13T07:58:16;32.53;;;25.30;;
239;SDS011;104;53.590;10.004;2023-07-13T08:00:54;28.93;;;10.63;;
239;SDS011;104;53.590;10.004;2023-07-13T08:06:35;18.40;;;8.23;;
239;SDS011;104;53.590;10.004;2023-07-13T08:09:06;14.67;;;5.23;;
239;SDS011;104;53.590;10.004;2023-07-13T08:11:41;14.00;;;5.53;;
239;SDS011;104;53.590;10.004;2023-07-13T08:14:17;15.23;;;6.30;;
239;SDS011;104;53.590;10.004;2023-07-13T08:17:00;21.73;;;9.17;;
239;SDS011;104;53.590;10.004;2023-07-13T08:19:31;18.53;;;9.00;;
239;SDS011;104;53.590;10.004;2023-07-13T08:22:13;14.90;;;9.10;;
239;SDS011;104;53.590;10.004;2023-07-13T08:30:26;174.03;;;165.70;;
239;SDS011;104;53.590;10.004;2023-07-13T08:33:01;57.53;;;54.73;;
239;SDS011;104;53.590;10.004;2023-07-13T08:35:28;35.77;;;34.00;;
239;SDS011;104;53.590;10.004;2023-07-13T08:38:06;40.30;;;38.33;;
239;SDS011;104;53.590;10.004;2023-07-13T08:40:33;40.33;;;38.33;;
239;SDS011;104;53.590;10.004;2023-07-13T08:43:01;56.03;;;49.87;;
239;SDS011;104;53.590;10.004;2023-07-13T08:45:29;60.67;;;47.90;;
239;SDS011;104;53.590;10.004;2023-07-13T08:47:59;58.43;;;55.60;;
239;SDS011;104;53.590;10.004;2023-07-13T08:50:40;25.10;;;19.40;;
239;SDS011;104;53.590;10.004;2023-07-13T08:59:18;25.27;;;21.63;;
239;SDS011;104;53.590;10.004;2023-07-13T09:02:23;28.60;;;23.00;;
239;SDS011;104;53.590;10.004;2023-07-13T09:04:54;29.63;;;26.13;;
239;SDS011;104;53.590;10.004;2023-07-13T09:07:31;36.73;;;32.13;;
239;SDS011;104;53.590;10.004;2023-07-13T09:10:19;37.03;;;28.87;;
239;SDS011;104;53.590;10.004;2023-07-13T09:13:04;40.50;;;37.73;;
239;SDS011;104;53.590;10.004;2023-07-13T09:15:39;37.73;;;31.40;;
239;SDS011;104;53.590;10.004;2023-07-13T09:18:21;17.10;;;12.33;;
239;SDS011;104;53.590;10.004;2023-07-13T09:21:20;20.63;;;11.03;;
239;SDS011;104;53.590;10.004;2023-07-13T09:27:12;12.10;;;8.83;;
239;SDS011;104;53.590;10.004;2023-07-13T09:30:32;31.43;;;12.23;;
239;SDS011;104;53.590;10.004;2023-07-13T09:33:24;35.47;;;22.43;;
239;SDS011;104;53.590;10.004;2023-07-13T09:36:29;34.33;;;27.90;;
239;SDS011;104;53.590;10.004;2023-07-13T09:39:09;32.40;;;28.23;;
239;SDS011;104;53.590;10.004;2023-07-13T11:20:39;21.17;;;8.93;;
239;SDS011;104;53.590;10.004;2023-07-13T11:23:08;11.23;;;6.67;;
239;SDS011;104;53.590;10.004;2023-07-13T11:25:36;13.73;;;7.47;;
239;SDS011;104;53.590;10.004;2023-07-13T11:28:05;10.90;;;7.83;;
239;SDS011;104;53.590;10.004;2023-07-13T11:30:35;19.60;;;8.40;;
239;SDS011;104;53.590;10.004;2023-07-13T11:33:10;45.60;;;12.90;;
239;SDS011;104;53.590;10.004;2023-07-13T11:35:41;10.43;;;8.40;;
239;SDS011;104;53.590;10.004;2023-07-13T11:38:12;15.53;;;7.70;;
239;SDS011;104;53.590;10.004;2023-07-13T11:40:41;17.70;;;7.93;;
239;SDS011;104;53.590;10.004;2023-07-13T11:43:11;28.70;;;24.43;;
239;SDS011;104;53.590;10.004;2023-07-13T11:45:39;39.50;;;37.03;;
239;SDS011;104;53.590;10.004;2023-07-13T11:48:17;50.30;;;47.87;;
239;SDS011;104;53.590;10.004;2023-07-13T11:50:50;54.10;;;51.47;;
239;SDS011;104;53.590;10.004;2023-07-13T11:53:18;67.10;;;63.87;;
239;SDS011;104;53.590;10.004;2023-07-13T11:55:45;65.23;;;62.07;;
239;SDS011;104;53.590;10.004;2023-07-13T11:58:14;95.77;;;91.13;;
239;SDS011;104;53.590;10.004;2023-07-13T12:07:04;84.93;;;80.87;;
239;SDS011;104;53.590;10.004;2023-07-13T12:09:32;111.47;;;106.10;;
239;SDS011;104;53.590;10.004;2023-07-13T12:12:01;96.83;;;92.17;;
239;SDS011;104;53.590;10.004;2023-07-13T12:14:29;95.80;;;91.20;;
239;SDS011;104;53.590;10.004;2023-07-13T12:17:00;71.63;;;68.17;;
239;SDS011;104;53.590;10.004;2023-07-13T12:19:29;78.27;;;74.50;;
239;SDS011;104;53.590;10.004;2023-07-13T12:21:59;79.37;;;75.57;;
239;SDS011;104;53.590;10.004;2023-07-13T12:24:27;83.87;;;78.67;;
239;SDS011;104;53.590;10.004;2023-07-13T12:26:58;66.90;;;63.67;;
239;SDS011;104;53.590;10.004;2023-07-13T12:29:26;91.23;;;86.83;;
239;SDS011;104;53.590;10.004;2023-07-13T12:31:54;81.90;;;77.97;;
239;SDS011;104;53.590;10.004;2023-07-13T12:34:23;73.30;;;69.77;;
239;SDS011;104;53.590;10.004;2023-07-13T12:36:51;50.37;;;47.77;;
239;SDS011;104;53.590;10.004;2023-07-13T12:39:22;51.50;;;48.97;;
239;SDS011;104;53.590;10.004;2023-07-13T12:41:50;53.13;;;50.53;;
239;SDS011;104;53.590;10.004;2023-07-13T12:44:23;58.77;;;55.93;;
239;SDS011;104;53.590;10.004;2023-07-13T12:46:52;82.97;;;78.97;;
239;SDS011;104;53.590;10.004;2023-07-13T12:49:22;68.90;;;65.57;;
239;SDS011;104;53.590;10.004;2023-07-13T12:51:50;83.33;;;79.33;;
239;SDS011;104;53.590;10.004;2023-07-13T12:54:18;70.00;;;66.60;;
239;SDS011;104;53.590;10.004;2023-07-13T12:56:49;81.90;;;77.97;;
239;SDS011;104;53.590;10.004;2023-07-13T12:59:19;69.93;;;66.53;;
239;SDS011;104;53.590;10.004;2023-07-13T13:01:47;63.43;;;60.37;;
239;SDS011;104;53.590;10.004;2023-07-13T13:04:15;75.20;;;71.60;;
239;SDS011;104;53.590;10.004;2023-07-13T13:06:46;87.37;;;83.17;;
239;SDS011;104;53.590;10.004;2023-07-13T13:09:14;86.37;;;82.17;;
239;SDS011;104;53.590;10.004;2023-07-13T13:11:42;108.07;;;102.87;;
239;SDS011;104;53.590;10.004;2023-07-13T13:14:11;116.77;;;111.17;;
239;SDS011;104;53.590;10.004;2023-07-13T13:16:43;108.03;;;102.83;;
239;SDS011;104;53.590;10.004;2023-07-13T13:19:13;86.97;;;82.77;;
239;SDS011;104;53.590;10.004;2023-07-13T13:22:17;90.10;;;85.77;;
239;SDS011;104;53.590;10.004;2023-07-13T13:25:00;34.43;;;31.63;;
239;SDS011;104;53.590;10.004;2023-07-13T13:27:43;34.17;;;32.50;;
239;SDS011;104;53.590;10.004;2023-07-13T13:30:14;28.63;;;23.00;;
239;SDS011;104;53.590;10.004;2023-07-13T13:32:42;36.97;;;35.03;;
239;SDS011;104;53.590;10.004;2023-07-13T13:35:12;41.73;;;39.70;;
239;SDS011;104;53.590;10.004;2023-07-13T13:37:40;37.07;;;35.23;;
239;SDS011;104;53.590;10.004;2023-07-13T13:40:17;38.90;;;37.00;;
239;SDS011;104;53.590;10.004;2023-07-13T13:42:46;48.10;;;45.77;;
239;SDS011;104;53.590;10.004;2023-07-13T13:45:18;59.23;;;56.37;;
239;SDS011;104;53.590;10.004;2023-07-13T13:47:46;51.37;;;48.87;;
239;SDS011;104;53.590;10.004;2023-07-13T13:50:15;31.43;;;29.90;;
239;SDS011;104;53.590;10.004;2023-07-13T13:52:43;35.30;;;28.63;;
239;SDS011;104;53.590;10.004;2023-07-13T13:55:13;34.43;;;32.73;;
239;SDS011;104;53.590;10.004;2023-07-13T13:57:41;41.20;;;39.17;;
239;SDS011;104;53.590;10.004;2023-07-13T14:00:09;40.50;;;38.53;;
239;SDS011;104;53.590;10.004;2023-07-13T14:02:41;42.63;;;40.57;;
239;SDS011;104;53.590;10.004;2023-07-13T14:05:12;53.23;;;50.63;;
239;SDS011;104;53.590;10.004;2023-07-13T14:07:40;80.63;;;76.73;;
239;SDS011;104;53.590;10.004;2023-07-13T14:10:10;136.10;;;129.60;;
239;SDS011;104;53.590;10.004;2023-07-13T14:12:40;152.40;;;145.10;;
239;SDS011;104;53.590;10.004;2023-07-13T14:15:12;161.60;;;153.87;;
239;SDS011;104;53.590;10.004;2023-07-13T14:17:42;161.80;;;154.00;;
239;SDS011;104;53.590;10.004;2023-07-13T14:20:10;190.57;;;181.43;;
239;SDS011;104;53.590;10.004;2023-07-13T14:22:38;160.57;;;152.87;;
239;SDS011;104;53.590;10.004;2023-07-13T14:25:10;155.30;;;147.87;;
239;SDS011;104;53.590;10.004;2023-07-13T14:27:48;137.80;;;131.20;;
239;SDS011;104;53.590;10.004;2023-07-13T18:47:37;57.80;;;55.00;;
239;SDS011;104;53.590;10.004;2023-07-13T18:50:16;49.67;;;46.97;;
239;SDS011;104;53.590;10.004;2023-07-13T18:52:45;50.30;;;44.87;;
239;SDS011;104;53.590;10.004;2023-07-13T18:55:16;28.63;;;26.70;;
239;SDS011;104;53.590;10.004;2023-07-13T19:10:43;50.40;;;33.10;;
239;SDS011;104;53.590;10.004;2023-07-13T19:13:13;25.73;;;15.27;;
239;SDS011;104;53.590;10.004;2023-07-13T19:15:42;31.13;;;23.20;;
239;SDS011;104;53.590;10.004;2023-07-13T19:18:13;60.40;;;57.47;;
239;SDS011;104;53.590;10.004;2023-07-13T19:20:41;89.13;;;76.97;;
239;SDS011;104;53.590;10.004;2023-07-13T19:23:12;99.53;;;94.73;;
239;SDS011;104;53.590;10.004;2023-07-13T19:25:42;126.17;;;120.10;;
239;SDS011;104;53.590;10.004;2023-07-13T19:28:21;121.20;;;115.37;;
239;SDS011;104;53.590;10.004;2023-07-13T19:30:51;104.50;;;99.50;;
239;SDS011;104;53.590;10.004;2023-07-13T19:33:18;93.30;;;88.80;;
239;SDS011;104;53.590;10.004;2023-07-13T19:35:46;49.60;;;28.13;;
239;SDS011;104;53.590;10.004;2023-07-13T19:38:14;36.93;;;26.10;;
239;SDS011;104;53.590;10.004;2023-07-13T19:40:43;32.60;;;21.63;;
239;SDS011;104;53.590;10.004;2023-07-13T19:43:11;38.70;;;27.30;;
239;SDS011;104;53.590;10.004;2023-07-13T19:45:38;31.53;;;24.47;;
239;SDS011;104;53.590;10.004;2023-07-13T19:48:06;22.03;;;20.30;;
239;SDS011;104;53.590;10.004;2023-07-13T19:50:34;31.77;;;18.93;;
239;SDS011;104;53.590;10.004;2023-07-13T19:53:03;32.93;;;24.63;;
239;SDS011;104;53.590;10.004;2023-07-13T19:55:30;29.27;;;16.50;;
239;SDS011;104;53.590;10.004;2023-07-13T19:58:00;31.67;;;21.80;;
239;SDS011;104;53.590;10.004;2023-07-13T20:00:28;32.10;;;19.70;;
239;SDS011;104;53.590;10.004;2023-07-13T20:02:55;25.63;;;20.10;;
239;SDS011;104;53.590;10.004;2023-07-13T20:05:23;33.10;;;29.17;;
239;SDS011;104;53.590;10.004;2023-07-13T20:07:52;40.10;;;30.70;;
239;SDS011;104;53.590;10.004;2023-07-13T20:10:22;72.70;;;69.17;;
239;SDS011;104;53.590;10.004;2023-07-13T20:12:50;124.23;;;118.27;;
239;SDS011;104;53.590;10.004;2023-07-13T20:15:21;127.33;;;121.23;;
239;SDS011;104;53.590;10.004;2023-07-13T20:17:49;95.93;;;91.33;;
239;SDS011;104;53.590;10.004;2023-07-13T20:20:22;91.90;;;87.50;;
239;SDS011;104;53.590;10.004;2023-07-13T20:22:50;105.53;;;100.47;;
239;SDS011;104;53.590;10.004;2023-07-13T20:25:19;92.17;;;87.73;;
239;SDS011;104;53.590;10.004;2023-07-13T20:27:49;93.23;;;88.73;;
239;SDS011;104;53.590;10.004;2023-07-13T22:04:53;52.60;;;50.03;;
239;SDS011;104;53.590;10.004;2023-07-13T22:07:21;62.67;;;53.37;;
239;SDS011;104;53.590;10.004;2023-07-13T22:09:48;55.20;;;51.60;;
239;SDS011;104;53.590;10.004;2023-07-13T22:12:16;57.00;;;54.03;;
